createdAt,value
2018-08-22T00:01:21.357Z,15.46
2018-08-22T00:03:48.355Z,15.36
2018-08-22T00:06:15.265Z,15.47
2018-08-22T00:08:42.558Z,15.46
2018-08-22T00:11:09.510Z,15.48
2018-08-22T00:13:36.469Z,15.26
2018-08-22T00:16:03.466Z,15.38
2018-08-22T00:18:30.405Z,15.44
2018-08-22T00:20:57.367Z,15.51
2018-08-22T00:23:24.284Z,15.50
2018-08-22T00:25:51.237Z,15.45
2018-08-22T00:28:18.137Z,15.38
2018-08-22T00:30:45.083Z,15.40
2018-08-22T00:33:12.017Z,15.39
2018-08-22T00:35:38.970Z,15.41
2018-08-22T00:38:05.903Z,15.38
2018-08-22T00:40:32.831Z,15.28
2018-08-22T00:42:59.787Z,15.27
2018-08-22T00:45:26.718Z,15.25
2018-08-22T00:47:53.932Z,15.19
2018-08-22T00:50:20.850Z,15.17
2018-08-22T00:52:47.820Z,15.13
2018-08-22T00:55:14.896Z,15.16
2018-08-22T00:57:48.526Z,15.09
2018-08-22T01:00:15.472Z,15.05
2018-08-22T01:02:42.369Z,15.09
2018-08-22T01:05:09.288Z,15.01
2018-08-22T01:07:36.221Z,15.07
2018-08-22T01:10:03.529Z,15.04
2018-08-22T01:12:30.465Z,14.90
2018-08-22T01:14:57.404Z,14.85
2018-08-22T01:17:24.337Z,14.93
2018-08-22T01:19:51.293Z,14.93
2018-08-22T01:22:18.217Z,14.88
2018-08-22T01:24:45.186Z,14.85
2018-08-22T01:27:18.000Z,14.80
2018-08-22T01:29:44.909Z,14.82
2018-08-22T01:32:11.912Z,14.79
2018-08-22T01:34:38.822Z,14.80
2018-08-22T01:37:05.794Z,14.77
2018-08-22T01:39:32.701Z,14.80
2018-08-22T01:41:59.630Z,14.78
2018-08-22T01:44:26.545Z,14.73
2018-08-22T01:46:53.497Z,14.66
2018-08-22T01:49:20.436Z,14.64
2018-08-22T01:51:47.347Z,14.60
2018-08-22T01:54:14.279Z,14.61
2018-08-22T01:56:41.237Z,14.61
2018-08-22T01:59:08.145Z,14.53
2018-08-22T02:01:35.092Z,14.52
2018-08-22T02:04:02.180Z,14.51
2018-08-22T02:06:29.117Z,14.42
2018-08-22T02:08:56.056Z,14.42
2018-08-22T02:11:23.006Z,14.36
2018-08-22T02:13:49.928Z,14.35
2018-08-22T02:16:16.889Z,14.32
2018-08-22T02:18:43.810Z,14.25
2018-08-22T02:21:10.775Z,14.28
2018-08-22T02:23:37.705Z,14.25
2018-08-22T02:26:04.666Z,14.19
2018-08-22T02:28:31.692Z,14.18
2018-08-22T02:30:58.649Z,14.18
2018-08-22T02:33:25.576Z,14.10
2018-08-22T02:35:52.484Z,14.13
2018-08-22T02:38:23.289Z,14.08
2018-08-22T02:40:50.270Z,14.07
2018-08-22T02:43:17.298Z,14.01
2018-08-22T02:45:44.200Z,14.02
2018-08-22T02:48:11.148Z,14.00
2018-08-22T02:50:38.105Z,14.01
2018-08-22T02:53:05.036Z,13.94
2018-08-22T02:55:31.969Z,13.94
2018-08-22T02:57:58.908Z,13.93
2018-08-22T03:00:25.838Z,13.94
2018-08-22T03:02:52.760Z,13.92
2018-08-22T03:05:19.689Z,13.92
2018-08-22T03:07:46.670Z,13.89
2018-08-22T03:10:13.601Z,13.92
2018-08-22T03:12:40.527Z,13.88
2018-08-22T03:15:07.461Z,13.83
2018-08-22T03:17:34.418Z,13.86
2018-08-22T03:20:01.356Z,13.81
2018-08-22T03:22:28.321Z,13.83
2018-08-22T03:24:55.254Z,13.88
2018-08-22T03:27:22.200Z,13.82
2018-08-22T03:29:49.140Z,13.77
2018-08-22T03:32:22.846Z,13.77
2018-08-22T03:34:49.813Z,13.70
2018-08-22T03:37:16.794Z,13.71
2018-08-22T03:39:43.721Z,13.72
2018-08-22T03:42:10.664Z,13.74
2018-08-22T03:44:37.592Z,13.72
2018-08-22T03:47:11.306Z,13.72
2018-08-22T03:49:38.259Z,13.61
2018-08-22T03:52:05.227Z,13.66
2018-08-22T03:54:32.160Z,13.60
2018-08-22T03:56:59.137Z,13.53
2018-08-22T03:59:26.056Z,13.58
2018-08-22T04:01:52.996Z,13.58
2018-08-22T04:04:19.929Z,13.56
2018-08-22T04:06:46.871Z,13.54
2018-08-22T04:09:13.833Z,13.57
2018-08-22T04:11:40.845Z,13.48
2018-08-22T04:14:07.772Z,13.47
2018-08-22T04:16:34.676Z,13.58
2018-08-22T04:19:01.605Z,13.56
2018-08-22T04:21:28.533Z,13.15
2018-08-22T04:23:55.521Z,13.58
2018-08-22T04:26:22.436Z,13.59
2018-08-22T04:28:49.358Z,13.63
2018-08-22T04:31:16.278Z,13.65
2018-08-22T04:33:43.262Z,13.63
2018-08-22T04:36:10.184Z,13.64
2018-08-22T04:38:37.136Z,13.72
2018-08-22T04:41:04.280Z,13.76
2018-08-22T04:43:31.206Z,13.69
2018-08-22T04:45:58.103Z,13.76
2018-08-22T04:49:29.183Z,13.76
2018-08-22T04:51:56.104Z,13.82
2018-08-22T04:54:23.052Z,13.87
2018-08-22T04:56:49.975Z,13.88
2018-08-22T04:59:16.902Z,13.92
2018-08-22T05:01:43.820Z,13.91
2018-08-22T05:04:10.744Z,13.95
2018-08-22T05:06:37.639Z,14.05
2018-08-22T05:09:05.771Z,14.03
2018-08-22T05:11:32.695Z,14.13
2018-08-22T05:13:59.634Z,14.16
2018-08-22T05:16:26.544Z,14.23
2018-08-22T05:18:53.456Z,14.33
2018-08-22T05:21:20.365Z,14.43
2018-08-22T05:23:47.300Z,14.45
2018-08-22T05:26:14.222Z,14.53
2018-08-22T05:28:41.203Z,14.55
2018-08-22T05:31:08.090Z,14.66
2018-08-22T05:33:35.008Z,14.77
2018-08-22T05:36:01.932Z,14.90
2018-08-22T05:38:28.845Z,14.97
2018-08-22T05:43:29.628Z,15.14
2018-08-22T05:45:56.544Z,15.52
2018-08-22T05:48:23.448Z,15.61
2018-08-22T05:50:50.369Z,15.56
2018-08-22T05:53:17.304Z,15.61
2018-08-22T05:55:44.217Z,15.88
2018-08-22T05:58:11.150Z,15.87
2018-08-22T06:00:38.056Z,15.95
2018-08-22T06:03:05.012Z,16.28
2018-08-22T06:05:31.944Z,16.47
2018-08-22T06:07:58.868Z,16.48
2018-08-22T06:10:25.789Z,16.57
2018-08-22T06:12:52.709Z,16.65
2018-08-22T06:15:19.645Z,16.70
2018-08-22T06:17:46.566Z,16.79
2018-08-22T06:20:13.514Z,16.84
2018-08-22T06:22:40.427Z,16.91
2018-08-22T06:25:07.344Z,17.07
2018-08-22T06:27:34.362Z,17.17
2018-08-22T06:30:01.306Z,17.25
2018-08-22T06:32:28.232Z,17.50
2018-08-22T06:34:55.178Z,17.83
2018-08-22T06:37:22.086Z,17.80
2018-08-22T06:39:55.897Z,18.19
2018-08-22T06:42:22.813Z,18.27
2018-08-22T06:44:49.728Z,18.37
2018-08-22T06:47:16.675Z,18.45
2018-08-22T06:49:43.594Z,18.55
2018-08-22T06:52:10.527Z,18.70
2018-08-22T06:54:37.450Z,18.76
2018-08-22T06:57:04.407Z,18.96
2018-08-22T06:59:31.317Z,19.13
2018-08-22T07:01:58.249Z,19.45
2018-08-22T07:04:25.185Z,19.35
2018-08-22T07:06:52.120Z,19.54
2018-08-22T07:09:19.060Z,19.76
2018-08-22T07:11:45.987Z,20.04
2018-08-22T07:14:13.006Z,20.09
2018-08-22T07:16:39.852Z,20.17
2018-08-22T07:19:06.803Z,20.38
2018-08-22T07:21:33.757Z,20.56
2018-08-22T07:24:00.704Z,20.72
2018-08-22T07:26:27.619Z,21.01
2018-08-22T07:28:54.546Z,20.91
2018-08-22T07:31:21.444Z,21.11
2018-08-22T07:33:48.410Z,21.20
2018-08-22T07:36:15.340Z,21.33
2018-08-22T07:38:42.266Z,21.58
2018-08-22T07:41:09.213Z,21.80
2018-08-22T07:43:36.216Z,21.89
2018-08-22T07:46:03.164Z,22.12
2018-08-22T07:48:30.083Z,22.34
2018-08-22T07:50:56.986Z,22.28
2018-08-22T07:53:23.916Z,22.58
2018-08-22T07:55:50.819Z,22.78
2018-08-22T07:58:17.719Z,22.82
2018-08-22T08:00:44.628Z,22.96
2018-08-22T08:03:11.528Z,23.09
2018-08-22T08:05:38.462Z,23.26
2018-08-22T08:08:05.412Z,23.33
2018-08-22T08:10:33.576Z,23.67
2018-08-22T08:13:00.917Z,23.67
2018-08-22T08:15:27.881Z,23.63
2018-08-22T08:17:55.108Z,23.64
2018-08-22T08:20:22.381Z,23.85
2018-08-22T08:22:49.309Z,24.05
2018-08-22T08:25:16.244Z,24.18
2018-08-22T08:27:43.210Z,24.10
2018-08-22T08:30:10.164Z,24.35
2018-08-22T08:32:37.071Z,24.26
2018-08-22T08:35:04.252Z,24.70
2018-08-22T08:37:31.200Z,24.65
2018-08-22T08:39:58.113Z,25.02
2018-08-22T08:42:25.081Z,24.89
2018-08-22T08:44:52.000Z,25.01
2018-08-22T08:47:18.948Z,25.00
2018-08-22T08:49:45.888Z,25.24
2018-08-22T08:52:12.829Z,25.38
2018-08-22T08:54:39.844Z,25.52
2018-08-22T08:57:06.792Z,25.63
2018-08-22T08:59:33.683Z,25.44
2018-08-22T09:02:00.621Z,25.25
2018-08-22T09:04:27.557Z,25.28
2018-08-22T09:06:54.493Z,25.46
2018-08-22T09:09:21.424Z,25.69
2018-08-22T09:11:54.256Z,26.15
2018-08-22T09:14:21.296Z,26.11
2018-08-22T09:16:48.260Z,25.91
2018-08-22T09:19:15.185Z,25.99
2018-08-22T09:21:42.129Z,26.06
2018-08-22T09:24:09.103Z,26.16
2018-08-22T09:26:36.826Z,26.53
2018-08-22T09:29:04.245Z,26.83
2018-08-22T09:31:31.204Z,26.83
2018-08-22T09:33:58.116Z,26.94
2018-08-22T09:36:25.073Z,26.91
2018-08-22T09:38:51.989Z,27.35
2018-08-22T09:41:18.905Z,27.57
2018-08-22T09:43:45.844Z,27.19
2018-08-22T09:46:12.781Z,27.10
2018-08-22T09:48:39.710Z,27.09
2018-08-22T09:51:06.663Z,26.81
2018-08-22T09:53:33.601Z,27.31
2018-08-22T09:56:00.620Z,27.38
2018-08-22T09:58:27.553Z,27.22
2018-08-22T10:01:00.399Z,27.20
2018-08-22T10:03:29.380Z,27.77
2018-08-22T10:05:56.304Z,27.78
2018-08-22T10:08:23.247Z,27.95
2018-08-22T10:10:50.192Z,27.59
2018-08-22T10:13:17.121Z,27.70
2018-08-22T10:15:44.045Z,27.88
2018-08-22T10:18:10.997Z,27.43
2018-08-22T10:20:37.929Z,27.56
2018-08-22T10:23:04.882Z,27.96
2018-08-22T10:25:31.825Z,28.17
2018-08-22T10:27:58.759Z,28.31
2018-08-22T10:30:25.701Z,27.97
2018-08-22T10:32:52.714Z,28.03
2018-08-22T10:35:19.557Z,28.32
2018-08-22T10:37:46.489Z,28.08
2018-08-22T10:40:13.446Z,27.88
2018-08-22T10:42:40.371Z,28.49
2018-08-22T10:45:07.285Z,28.69
2018-08-22T10:47:34.225Z,28.42
2018-08-22T10:50:01.145Z,28.85
2018-08-22T10:52:28.072Z,28.97
2018-08-22T10:54:55.010Z,28.80
2018-08-22T10:57:21.953Z,28.82
2018-08-22T10:59:48.906Z,28.83
2018-08-22T11:02:15.881Z,28.91
2018-08-22T11:04:42.962Z,29.45
2018-08-22T11:07:09.897Z,28.90
2018-08-22T11:09:36.848Z,28.89
2018-08-22T11:12:03.876Z,29.43
2018-08-22T11:14:30.845Z,28.92
2018-08-22T11:16:57.780Z,29.12
2018-08-22T11:19:24.728Z,29.11
2018-08-22T11:22:03.369Z,29.22
2018-08-22T11:24:41.820Z,28.87
2018-08-22T11:27:20.408Z,29.02
2018-08-22T11:29:58.939Z,28.90
2018-08-22T11:32:37.285Z,29.33
2018-08-22T11:35:03.327Z,29.50
2018-08-22T11:37:30.250Z,29.71
2018-08-22T11:39:57.201Z,29.52
2018-08-22T11:42:24.133Z,29.82
2018-08-22T11:44:51.080Z,29.87
2018-08-22T11:47:17.976Z,30.38
2018-08-22T11:49:44.920Z,29.92
2018-08-22T11:52:11.841Z,29.95
2018-08-22T11:54:38.780Z,30.35
2018-08-22T11:57:05.746Z,30.16
2018-08-22T11:59:32.697Z,30.31
2018-08-22T12:01:59.661Z,30.61
2018-08-22T12:04:26.611Z,30.06
2018-08-22T12:06:53.573Z,30.37
2018-08-22T12:09:20.645Z,30.19
2018-08-22T12:11:47.565Z,30.56
2018-08-22T12:14:14.553Z,29.93
2018-08-22T12:16:41.568Z,29.63
2018-08-22T12:19:09.036Z,30.02
2018-08-22T12:21:36.088Z,30.34
2018-08-22T12:24:03.428Z,30.60
2018-08-22T12:26:30.339Z,30.28
2018-08-22T12:28:57.295Z,30.25
2018-08-22T12:31:24.206Z,30.30
2018-08-22T12:33:51.196Z,30.69
2018-08-22T12:36:18.131Z,30.91
2018-08-22T12:38:45.089Z,30.75
2018-08-22T12:41:12.028Z,30.49
2018-08-22T12:43:38.989Z,30.80
2018-08-22T12:46:05.944Z,30.46
2018-08-22T12:48:32.887Z,30.20
2018-08-22T12:50:59.822Z,30.33
2018-08-22T12:53:26.997Z,30.68
2018-08-22T12:55:53.941Z,30.59
2018-08-22T12:58:20.880Z,30.35
2018-08-22T13:00:47.824Z,30.07
2018-08-22T13:03:14.753Z,30.14
2018-08-22T13:05:41.696Z,30.21
2018-08-22T13:08:08.717Z,30.12
2018-08-22T13:10:35.651Z,30.21
2018-08-22T13:13:02.594Z,30.02
2018-08-22T13:15:29.541Z,30.66
2018-08-22T13:17:56.480Z,31.06
2018-08-22T13:20:24.231Z,31.27
2018-08-22T13:22:51.144Z,30.89
2018-08-22T13:25:18.079Z,30.68
2018-08-22T13:27:45.007Z,30.47
2018-08-22T13:30:12.558Z,30.69
2018-08-22T13:32:39.490Z,31.10
2018-08-22T13:35:06.526Z,30.59
2018-08-22T13:37:33.485Z,30.27
2018-08-22T13:40:00.425Z,30.62
2018-08-22T13:42:27.383Z,30.82
2018-08-22T13:44:54.331Z,30.34
2018-08-22T13:47:21.266Z,30.50
2018-08-22T13:49:48.226Z,30.72
2018-08-22T13:52:15.184Z,30.70
2018-08-22T13:54:42.188Z,31.14
2018-08-22T13:57:09.116Z,30.81
2018-08-22T13:59:36.066Z,30.79
2018-08-22T14:02:03.000Z,30.58
2018-08-22T14:04:29.942Z,30.67
2018-08-22T14:06:56.903Z,30.44
2018-08-22T14:09:23.835Z,30.38
2018-08-22T14:11:50.780Z,29.90
2018-08-22T14:14:17.720Z,29.37
2018-08-22T14:16:44.673Z,29.36
2018-08-22T14:19:11.596Z,29.24
2018-08-22T14:21:38.532Z,29.38
2018-08-22T14:24:05.518Z,29.45
2018-08-22T14:26:32.468Z,29.24
2018-08-22T14:28:59.414Z,29.20
2018-08-22T14:31:26.352Z,29.02
2018-08-22T14:34:00.037Z,28.89
2018-08-22T14:36:27.315Z,28.88
2018-08-22T14:38:54.418Z,28.96
2018-08-22T14:41:21.512Z,28.96
2018-08-22T14:43:48.461Z,29.01
2018-08-22T14:46:15.492Z,28.76
2018-08-22T14:48:42.438Z,28.88
2018-08-22T14:51:09.400Z,28.72
2018-08-22T14:53:36.345Z,29.00
2018-08-22T14:56:03.346Z,29.08
2018-08-22T14:58:30.232Z,28.92
2018-08-22T15:00:57.184Z,29.00
2018-08-22T15:03:24.843Z,28.99
2018-08-22T15:05:51.527Z,29.22
2018-08-22T15:08:18.459Z,28.96
2018-08-22T15:10:45.948Z,28.90
2018-08-22T15:13:12.902Z,28.78
2018-08-22T15:15:39.861Z,28.77
2018-08-22T15:18:06.814Z,28.88
2018-08-22T15:20:33.753Z,29.07
2018-08-22T15:23:00.681Z,28.94
2018-08-22T15:25:27.749Z,28.92
2018-08-22T15:27:54.681Z,29.12
2018-08-22T15:30:21.626Z,29.08
2018-08-22T15:32:48.569Z,29.03
2018-08-22T15:35:15.502Z,29.08
2018-08-22T15:37:42.447Z,28.85
2018-08-22T15:40:09.380Z,28.92
2018-08-22T15:42:36.352Z,28.80
2018-08-22T15:45:03.308Z,28.74
2018-08-22T15:47:30.300Z,28.85
2018-08-22T15:49:57.302Z,28.74
2018-08-22T15:52:24.300Z,28.53
2018-08-22T15:55:05.037Z,28.63
2018-08-22T15:57:47.360Z,28.59
2018-08-22T16:00:51.155Z,28.65
2018-08-22T16:03:18.400Z,28.60
2018-08-22T16:05:46.230Z,28.63
2018-08-22T16:08:15.038Z,28.66
2018-08-22T16:10:42.014Z,28.56
2018-08-22T16:13:14.324Z,28.52
2018-08-22T16:15:41.296Z,28.47
2018-08-22T16:18:08.745Z,28.40
2018-08-22T16:20:41.810Z,28.31
2018-08-22T16:23:08.753Z,28.32
2018-08-22T16:25:41.499Z,28.30
2018-08-22T16:28:08.527Z,28.26
2018-08-22T16:30:35.452Z,28.18
2018-08-22T16:33:02.375Z,28.20
2018-08-22T16:35:29.304Z,28.12
2018-08-22T16:38:03.613Z,28.08
2018-08-22T16:40:34.098Z,28.06
2018-08-22T16:43:01.293Z,28.02
2018-08-22T16:45:28.442Z,28.05
2018-08-22T16:47:55.385Z,28.03
2018-08-22T16:50:23.363Z,27.95
2018-08-22T16:52:50.407Z,27.87
2018-08-22T16:55:19.809Z,27.80
2018-08-22T16:57:47.557Z,27.80
2018-08-22T17:00:14.894Z,27.74
2018-08-22T17:02:41.892Z,27.67
2018-08-22T17:05:08.859Z,27.63
2018-08-22T17:07:35.848Z,27.58
2018-08-22T17:10:03.126Z,27.51
2018-08-22T17:12:39.509Z,27.39
2018-08-22T17:15:06.863Z,27.36
2018-08-22T17:17:33.841Z,27.29
2018-08-22T17:20:00.782Z,27.24
2018-08-22T17:22:27.730Z,27.17
2018-08-22T17:24:54.658Z,27.09
2018-08-22T17:27:21.637Z,27.04
2018-08-22T17:29:48.580Z,26.93
2018-08-22T17:32:15.537Z,26.84
2018-08-22T17:34:42.546Z,26.77
2018-08-22T17:37:09.582Z,26.64
2018-08-22T17:39:36.544Z,26.48
2018-08-22T17:42:03.489Z,26.40
2018-08-22T17:44:30.453Z,26.30
2018-08-22T17:46:57.415Z,26.21
2018-08-22T17:49:24.384Z,26.12
2018-08-22T17:52:00.124Z,25.97
2018-08-22T17:54:27.322Z,25.83
2018-08-22T17:57:07.503Z,25.74
2018-08-22T17:59:34.450Z,25.72
2018-08-22T18:02:01.405Z,25.63
2018-08-22T18:04:38.735Z,25.48
2018-08-22T18:07:05.652Z,25.26
2018-08-22T18:09:32.610Z,25.13
2018-08-22T18:11:59.517Z,24.96
2018-08-22T18:14:26.445Z,24.87
2018-08-22T18:16:58.041Z,24.74
2018-08-22T18:19:25.040Z,24.59
2018-08-22T18:21:52.051Z,24.45
2018-08-22T18:24:19.044Z,24.39
2018-08-22T18:26:46.052Z,24.36
2018-08-22T18:29:13.025Z,24.21
2018-08-22T18:31:39.957Z,24.16
2018-08-22T18:34:06.849Z,24.10
2018-08-22T18:36:33.815Z,24.03
2018-08-22T18:39:04.747Z,23.95
2018-08-22T18:41:31.652Z,23.88
2018-08-22T18:43:58.816Z,23.80
2018-08-22T18:46:25.822Z,23.70
2018-08-22T18:48:52.797Z,23.60
2018-08-22T18:51:19.705Z,23.47
2018-08-22T18:53:46.635Z,23.33
2018-08-22T18:56:14.997Z,23.21
2018-08-22T18:58:41.910Z,23.08
2018-08-22T19:01:08.839Z,23.09
2018-08-22T19:03:36.213Z,23.05
2018-08-22T19:06:03.156Z,23.00
2018-08-22T19:08:30.068Z,22.91
2018-08-22T19:10:57.043Z,22.82
2018-08-22T19:13:24.842Z,22.68
2018-08-22T19:15:54.139Z,22.59
2018-08-22T19:18:21.088Z,22.59
2018-08-22T19:20:48.472Z,22.66
2018-08-22T19:23:15.467Z,22.69
2018-08-22T19:25:44.919Z,22.71
2018-08-22T19:28:11.918Z,22.53
2018-08-22T19:30:39.104Z,22.54
2018-08-22T19:33:09.851Z,22.55
2018-08-22T19:35:36.792Z,22.49
2018-08-22T19:38:04.983Z,22.39
2018-08-22T19:40:31.996Z,22.29
2018-08-22T19:42:59.085Z,22.30
2018-08-22T19:45:26.024Z,22.10
2018-08-22T19:47:52.970Z,22.05
2018-08-22T19:50:19.877Z,22.18
2018-08-22T19:52:46.873Z,22.03
2018-08-22T19:55:13.790Z,22.03
2018-08-22T19:57:42.957Z,22.04
2018-08-22T20:00:11.054Z,21.96
2018-08-22T20:02:38.005Z,21.88
2018-08-22T20:05:06.056Z,21.81
2018-08-22T20:07:33.011Z,21.79
2018-08-22T20:10:01.479Z,21.80
2018-08-22T20:12:39.708Z,21.65
2018-08-22T20:15:06.638Z,21.53
2018-08-22T20:17:33.588Z,21.48
2018-08-22T20:20:00.515Z,21.38
2018-08-22T20:22:48.356Z,21.37
2018-08-22T20:25:15.314Z,21.27
2018-08-22T20:27:42.253Z,21.18
2018-08-22T20:30:16.412Z,21.19
2018-08-22T20:32:55.960Z,21.08
2018-08-22T20:35:28.947Z,20.98
2018-08-22T20:37:57.021Z,20.95
2018-08-22T20:40:23.975Z,20.94
2018-08-22T20:42:50.966Z,20.91
2018-08-22T20:45:22.497Z,20.85
2018-08-22T20:47:54.058Z,20.77
2018-08-22T20:50:20.969Z,20.68
2018-08-22T20:52:49.380Z,20.63
2018-08-22T20:55:16.317Z,20.56
2018-08-22T20:57:43.254Z,20.51
2018-08-22T21:00:10.216Z,20.41
2018-08-22T21:02:37.159Z,20.40
2018-08-22T21:05:04.122Z,20.36
2018-08-22T21:07:36.290Z,20.29
2018-08-22T21:10:03.247Z,20.16
2018-08-22T21:12:30.200Z,20.22
2018-08-22T21:14:57.123Z,20.30
2018-08-22T21:17:24.040Z,20.37
2018-08-22T21:19:50.990Z,20.37
2018-08-22T21:22:27.968Z,20.29
2018-08-22T21:24:57.353Z,20.26
2018-08-22T21:27:24.222Z,20.16
2018-08-22T21:29:51.168Z,20.05
2018-08-22T21:32:18.322Z,19.96
2018-08-22T21:34:45.236Z,19.92
2018-08-22T21:37:25.205Z,19.92
2018-08-22T21:39:52.130Z,19.88
2018-08-22T21:42:24.655Z,19.82
2018-08-22T21:44:51.587Z,19.70
2018-08-22T21:47:18.483Z,19.66
2018-08-22T21:49:45.396Z,19.69
2018-08-22T21:52:12.362Z,19.73
2018-08-22T21:54:39.333Z,19.70
2018-08-22T21:57:06.227Z,19.64
2018-08-22T21:59:33.160Z,19.58
2018-08-22T22:02:07.269Z,19.54
2018-08-22T22:04:35.473Z,19.52
2018-08-22T22:07:03.617Z,19.59
2018-08-22T22:09:32.353Z,19.62
2018-08-22T22:12:00.177Z,19.62
2018-08-22T22:14:30.214Z,19.66
2018-08-22T22:16:57.856Z,19.63
2018-08-22T22:19:25.637Z,19.62
2018-08-22T22:21:52.573Z,19.56
2018-08-22T22:24:19.509Z,19.55
2018-08-22T22:26:46.421Z,19.53
2018-08-22T22:29:13.371Z,19.49
2018-08-22T22:31:40.285Z,19.49
2018-08-22T22:34:08.915Z,19.39
2018-08-22T22:36:35.850Z,19.31
2018-08-22T22:39:03.472Z,19.22
2018-08-22T22:41:30.904Z,19.23
2018-08-22T22:43:57.855Z,19.24
2018-08-22T22:46:24.754Z,19.23
2018-08-22T22:48:51.709Z,19.10
2018-08-22T22:51:18.624Z,19.07
2018-08-22T22:53:45.533Z,19.05
2018-08-22T22:56:12.522Z,19.04
2018-08-22T22:58:39.437Z,18.97
2018-08-22T23:01:06.905Z,18.96
2018-08-22T23:03:33.991Z,18.83
2018-08-22T23:06:01.050Z,18.85
2018-08-22T23:08:28.149Z,18.80
2018-08-22T23:10:55.460Z,18.74
2018-08-22T23:13:25.396Z,18.84
2018-08-22T23:15:52.361Z,18.77
2018-08-22T23:18:19.417Z,18.73
2018-08-22T23:20:46.455Z,18.71
2018-08-22T23:23:28.673Z,18.66
2018-08-22T23:26:00.405Z,18.33
2018-08-22T23:28:27.320Z,18.21
2018-08-22T23:30:54.332Z,18.38
2018-08-22T23:33:21.236Z,18.43
2018-08-22T23:35:48.178Z,18.44
2018-08-22T23:38:20.809Z,18.46
2018-08-22T23:40:48.061Z,18.41
2018-08-22T23:43:14.964Z,18.37
2018-08-22T23:45:47.428Z,18.37
2018-08-22T23:48:18.964Z,18.41
2018-08-22T23:50:54.792Z,18.46
2018-08-22T23:53:22.416Z,18.45
2018-08-22T23:55:49.602Z,18.38
2018-08-22T23:58:17.033Z,18.34
